EZY84XM EGCC-GCRR
Flight info
| Callsign | EZY84XM |
|---|---|
| Flight time | N/A |
| Altitude | 36000 |
| Route | KUXEM P17 BEPHE DCT OSSEP DCT OXCUD DCT ELNIF DCT ZESPE DCT KLAKI DCT SALCO/N0439F350 DCT IBISU DCT BALDA DCT ABUPI DCT TAKAV/N0449F370 DCT VEDOD UN857 TERTO |
| Aircraft | A320/M-SDE1E2E3FGHIRWXY/LB1 |
Departure
| Time | 2026-05-08 08:52 |
|---|---|
| Airport | Manchester Airport (EGCC) |
Arrival
| Time | N/A |
|---|---|
| Airport | César Manrique-Lanzarote Airport (GCRR) |
| Time | Latitude | Longitude | Altitude | Speed | Heading |
|---|---|---|---|---|---|
| 2026-05-08 08:29 | 53.36640 | -2.28614 | 248 ft | 0 kts | 135° |
| 2026-05-08 08:38 | 53.36643 | -2.28620 | 247 ft | 3 kts | 135° |
| 2026-05-08 08:38 | 53.36663 | -2.28650 | 247 ft | 4 kts | 146° |
| 2026-05-08 08:38 | 53.36686 | -2.28668 | 247 ft | 4 kts | 178° |
| 2026-05-08 08:39 | 53.36703 | -2.28661 | 247 ft | 0 kts | 224° |
| 2026-05-08 08:45 | 53.36697 | -2.28672 | 247 ft | 3 kts | 224° |
| 2026-05-08 08:45 | 53.36685 | -2.28691 | 247 ft | 2 kts | 224° |
| 2026-05-08 08:45 | 53.36673 | -2.28709 | 247 ft | 5 kts | 224° |
| 2026-05-08 08:46 | 53.36632 | -2.28776 | 247 ft | 9 kts | 216° |
| 2026-05-08 08:46 | 53.36581 | -2.28759 | 247 ft | 9 kts | 140° |
| 2026-05-08 08:46 | 53.36524 | -2.28664 | 247 ft | 13 kts | 135° |
| 2026-05-08 08:46 | 53.36454 | -2.28545 | 247 ft | 16 kts | 135° |
| 2026-05-08 08:47 | 53.36376 | -2.28474 | 247 ft | 10 kts | 176° |
| 2026-05-08 08:47 | 53.36311 | -2.28436 | 247 ft | 10 kts | 137° |
| 2026-05-08 08:47 | 53.36248 | -2.28331 | 247 ft | 16 kts | 135° |
| 2026-05-08 08:47 | 53.36162 | -2.28187 | 247 ft | 18 kts | 135° |
| 2026-05-08 08:48 | 53.36072 | -2.28034 | 247 ft | 19 kts | 135° |
| 2026-05-08 08:48 | 53.35990 | -2.27898 | 247 ft | 15 kts | 137° |
| 2026-05-08 08:48 | 53.35904 | -2.27849 | 247 ft | 10 kts | 181° |
| 2026-05-08 08:48 | 53.35845 | -2.27794 | 247 ft | 11 kts | 132° |
| 2026-05-08 08:49 | 53.35792 | -2.27694 | 247 ft | 12 kts | 134° |
| 2026-05-08 08:49 | 53.35719 | -2.27632 | 247 ft | 12 kts | 158° |
| 2026-05-08 08:49 | 53.35644 | -2.27555 | 247 ft | 14 kts | 141° |
| 2026-05-08 08:49 | 53.35566 | -2.27450 | 257 ft | 14 kts | 141° |
| 2026-05-08 08:50 | 53.35486 | -2.27342 | 262 ft | 15 kts | 141° |
| 2026-05-08 08:50 | 53.35396 | -2.27221 | 259 ft | 18 kts | 142° |
| 2026-05-08 08:50 | 53.35263 | -2.27212 | 250 ft | 23 kts | 191° |
| 2026-05-08 08:50 | 53.35111 | -2.27263 | 242 ft | 23 kts | 191° |
| 2026-05-08 08:51 | 53.35017 | -2.27306 | 239 ft | 10 kts | 215° |
| 2026-05-08 08:51 | 53.35003 | -2.27332 | 239 ft | 0 kts | 231° |
| 2026-05-08 08:51 | 53.34950 | -2.27442 | 239 ft | 40 kts | 231° |
| 2026-05-08 08:51 | 53.34751 | -2.27853 | 234 ft | 89 kts | 231° |
| 2026-05-08 08:52 | 53.34227 | -2.28936 | 212 ft | 147 kts | 231° |
| 2026-05-08 08:52 | 53.33505 | -2.30451 | 401 ft | 174 kts | 230° |
| 2026-05-08 08:52 | 53.32754 | -2.32044 | 1092 ft | 174 kts | 230° |
| 2026-05-08 08:52 | 53.32005 | -2.33682 | 1623 ft | 186 kts | 235° |
| 2026-05-08 08:53 | 53.31427 | -2.35755 | 1893 ft | 209 kts | 252° |
| 2026-05-08 08:53 | 53.31241 | -2.38313 | 2152 ft | 236 kts | 271° |
| 2026-05-08 08:53 | 53.31563 | -2.41135 | 2612 ft | 256 kts | 282° |
| 2026-05-08 08:53 | 53.31918 | -2.44072 | 3410 ft | 259 kts | 272° |
| 2026-05-08 08:54 | 53.31842 | -2.47071 | 4207 ft | 259 kts | 257° |
| 2026-05-08 08:54 | 53.31375 | -2.49983 | 5019 ft | 261 kts | 250° |
| 2026-05-08 08:54 | 53.30777 | -2.52856 | 5809 ft | 263 kts | 241° |
| 2026-05-08 08:54 | 53.29666 | -2.55243 | 6578 ft | 263 kts | 217° |
| 2026-05-08 08:55 | 53.28043 | -2.56622 | 7301 ft | 265 kts | 194° |
| 2026-05-08 08:55 | 53.26240 | -2.57330 | 8057 ft | 267 kts | 193° |
| 2026-05-08 08:55 | 53.24419 | -2.58021 | 8823 ft | 270 kts | 193° |
| 2026-05-08 08:55 | 53.22580 | -2.58716 | 9588 ft | 272 kts | 193° |
| 2026-05-08 08:56 | 53.20723 | -2.59418 | 10272 ft | 277 kts | 194° |
| 2026-05-08 08:56 | 53.18765 | -2.60162 | 10436 ft | 300 kts | 194° |
| 2026-05-08 08:56 | 53.16658 | -2.60967 | 10675 ft | 318 kts | 194° |
| 2026-05-08 08:56 | 53.14475 | -2.61801 | 11219 ft | 325 kts | 194° |
| 2026-05-08 08:57 | 53.12264 | -2.62646 | 11845 ft | 329 kts | 193° |
| 2026-05-08 08:57 | 53.10014 | -2.63503 | 12496 ft | 333 kts | 193° |
| 2026-05-08 08:57 | 53.07742 | -2.64367 | 13124 ft | 336 kts | 193° |
| 2026-05-08 08:57 | 53.05448 | -2.65240 | 13751 ft | 340 kts | 193° |
| 2026-05-08 08:58 | 53.03128 | -2.66123 | 14310 ft | 344 kts | 193° |
| 2026-05-08 08:58 | 53.00780 | -2.67011 | 14877 ft | 347 kts | 193° |
| 2026-05-08 08:58 | 52.98437 | -2.67893 | 15450 ft | 349 kts | 193° |
| 2026-05-08 08:58 | 52.96043 | -2.68794 | 16041 ft | 351 kts | 193° |
| 2026-05-08 08:59 | 52.93657 | -2.69694 | 16622 ft | 353 kts | 194° |
| 2026-05-08 08:59 | 52.91255 | -2.70599 | 17180 ft | 355 kts | 194° |
| 2026-05-08 08:59 | 52.88831 | -2.71515 | 17731 ft | 358 kts | 194° |
| 2026-05-08 08:59 | 52.86426 | -2.72424 | 18265 ft | 361 kts | 194° |
| 2026-05-08 09:00 | 52.83967 | -2.73353 | 18744 ft | 364 kts | 194° |
| 2026-05-08 09:00 | 52.81493 | -2.74289 | 19223 ft | 366 kts | 194° |
| 2026-05-08 09:00 | 52.79010 | -2.75221 | 19695 ft | 369 kts | 194° |
| 2026-05-08 09:00 | 52.76498 | -2.76161 | 20169 ft | 372 kts | 194° |
| 2026-05-08 09:01 | 52.73966 | -2.77106 | 20639 ft | 374 kts | 194° |
| 2026-05-08 09:01 | 52.71389 | -2.77835 | 21083 ft | 379 kts | 186° |
| 2026-05-08 09:01 | 52.68732 | -2.77766 | 21529 ft | 385 kts | 174° |
| 2026-05-08 09:01 | 52.66077 | -2.77070 | 21978 ft | 388 kts | 172° |
| 2026-05-08 09:02 | 52.63404 | -2.76343 | 22418 ft | 391 kts | 172° |
| 2026-05-08 09:02 | 52.60698 | -2.75875 | 22843 ft | 392 kts | 181° |
| 2026-05-08 09:02 | 52.57969 | -2.76054 | 23264 ft | 394 kts | 185° |
| 2026-05-08 09:02 | 52.55222 | -2.76306 | 23671 ft | 397 kts | 185° |
| 2026-05-08 09:03 | 52.52455 | -2.76549 | 24010 ft | 400 kts | 185° |
| 2026-05-08 09:03 | 52.49670 | -2.76791 | 24339 ft | 402 kts | 185° |
| 2026-05-08 09:03 | 52.46862 | -2.77034 | 24629 ft | 406 kts | 185° |
| 2026-05-08 09:03 | 52.44029 | -2.77278 | 24916 ft | 409 kts | 185° |
| 2026-05-08 09:04 | 52.41174 | -2.77523 | 25214 ft | 412 kts | 185° |
| 2026-05-08 09:04 | 52.38302 | -2.77774 | 25511 ft | 415 kts | 185° |
| 2026-05-08 09:04 | 52.35413 | -2.78024 | 25803 ft | 417 kts | 185° |
| 2026-05-08 09:04 | 52.32506 | -2.78276 | 26097 ft | 419 kts | 185° |
| 2026-05-08 09:05 | 52.29581 | -2.78526 | 26399 ft | 422 kts | 185° |
| 2026-05-08 09:05 | 52.26641 | -2.78774 | 26673 ft | 424 kts | 185° |
| 2026-05-08 09:05 | 52.23681 | -2.79024 | 26930 ft | 427 kts | 185° |
| 2026-05-08 09:05 | 52.20700 | -2.79280 | 27159 ft | 431 kts | 186° |
| 2026-05-08 09:06 | 52.17699 | -2.79541 | 27421 ft | 433 kts | 186° |
| 2026-05-08 09:06 | 52.14683 | -2.79800 | 27687 ft | 436 kts | 186° |
| 2026-05-08 09:06 | 52.11647 | -2.80060 | 27956 ft | 438 kts | 186° |
| 2026-05-08 09:06 | 52.08597 | -2.80321 | 28216 ft | 440 kts | 186° |
| 2026-05-08 09:07 | 52.05531 | -2.80581 | 28470 ft | 442 kts | 186° |
| 2026-05-08 09:07 | 52.02452 | -2.80842 | 28726 ft | 444 kts | 186° |
| 2026-05-08 09:07 | 51.99359 | -2.81102 | 28949 ft | 447 kts | 186° |
| 2026-05-08 09:07 | 51.97292 | -2.81274 | 29098 ft | 449 kts | 186° |
| 2026-05-08 09:08 | 51.94169 | -2.81535 | 29329 ft | 451 kts | 186° |